Time;durP1;ratioP1;P1;durP2;ratioP2;P2;SDS_P1;SDS_P2;PMS_P1;PMS_P2;Temp;Humidity;BMP_temperature;BMP_pressure;BME280_temperature;BME280_humidity;BME280_pressure;Samples;Min_cycle;Max_cycle;Signal;HPM_P1;HPM_P2
2023/06/21 00:00:28;;;;;;;9.30;7.65;;;20.70;99.90;;;;;;4935782;29;20098;-63
2023/06/21 00:02:54;;;;;;;14.68;8.15;;;20.60;99.90;;;;;;4935877;29;20043;-63
2023/06/21 00:05:19;;;;;;;11.82;8.50;;;20.60;99.90;;;;;;4935452;29;20035;-63
2023/06/21 00:07:47;;;;;;;10.38;7.70;;;20.60;99.90;;;;;;4936207;29;20023;-63
2023/06/21 00:10:13;;;;;;;10.52;8.25;;;20.50;99.90;;;;;;4935132;29;20103;-64
2023/06/21 00:12:39;;;;;;;8.45;7.60;;;20.50;99.90;;;;;;4936177;29;20548;-64
2023/06/21 00:15:05;;;;;;;10.00;8.30;;;20.60;99.90;;;;;;4934910;29;20118;-63
2023/06/21 00:17:31;;;;;;;10.85;8.40;;;20.50;99.90;;;;;;4927413;29;20036;-63
2023/06/21 00:19:56;;;;;;;14.18;8.60;;;20.50;99.90;;;;;;4935143;29;20106;-63
2023/06/21 00:22:22;;;;;;;10.88;8.02;;;20.40;99.90;;;;;;4935862;29;20031;-63
2023/06/21 00:24:53;;;;;;;11.18;8.70;;;20.40;99.90;;;;;;4935424;29;20035;-63
2023/06/21 00:27:19;;;;;;;12.45;8.77;;;;;;;;;;4935911;29;20110;-63
2023/06/21 00:29:47;;;;;;;14.43;8.48;;;;;;;;;;4935236;29;20028;-63
2023/06/21 00:32:13;;;;;;;17.00;8.70;;;;;;;;;;4934255;29;20102;-63
2023/06/21 00:34:39;;;;;;;11.95;9.05;;;;;;;;;;4935587;29;20106;-63
2023/06/21 00:37:05;;;;;;;11.20;9.02;;;;;;;;;;4934856;29;20038;-64
2023/06/21 00:39:31;;;;;;;13.85;8.85;;;;;;;;;;4934743;29;20058;-63
2023/06/21 00:41:57;;;;;;;15.25;9.75;;;;;;;;;;4935176;29;20027;-64
2023/06/21 00:44:24;;;;;;;10.60;8.38;;;;;;;;;;4935146;29;20028;-64
2023/06/21 00:46:50;;;;;;;12.18;9.10;;;;;;;;;;4935667;29;20488;-63
2023/06/21 00:49:16;;;;;;;11.95;9.00;;;;;;;;;;4934369;29;20139;-63
2023/06/21 00:51:42;;;;;;;12.75;10.05;;;;;;;;;;4935757;29;20026;-63
2023/06/21 00:54:16;;;;;;;13.18;9.30;;;;;;;;;;4934379;29;20079;-64
2023/06/21 00:56:45;;;;;;;13.05;9.82;;;;;;;;;;4935791;29;20039;-63
2023/06/21 00:59:12;;;;;;;14.80;8.93;;;;;;;;;;4933678;29;20816;-63
2023/06/21 01:01:38;;;;;;;13.43;9.50;;;;;;;;;;4935779;29;20070;-64
2023/06/21 01:04:04;;;;;;;14.55;10.07;;;;;;;;;;4907120;29;20371;-63
2023/06/21 01:06:32;;;;;;;15.45;9.68;;;;;;;;;;4928483;29;20063;-63
2023/06/21 01:09:03;;;;;;;14.35;8.95;;;;;;;;;;4929722;29;20039;-64
2023/06/21 01:11:31;;;;;;;11.02;9.65;;;;;;;;;;4935279;29;20020;-64
2023/06/21 01:14:15;;;;;;;10.25;9.13;;;;;;;;;;4933937;29;20107;-64
2023/06/21 01:16:44;;;;;;;15.65;10.02;;;;;;;;;;4934865;29;20032;-63
2023/06/21 01:19:28;;;;;;;12.63;9.63;;;;;;;;;;4933633;29;20032;-63
2023/06/21 01:21:57;;;;;;;15.57;9.98;;;;;;;;;;4934475;29;20100;-64
2023/06/21 01:24:45;;;;;;;16.88;10.82;;;;;;;;;;4934332;29;20050;-64
2023/06/21 01:27:11;;;;;;;15.23;9.80;;;;;;;;;;4934045;29;20026;-63
2023/06/21 01:29:39;;;;;;;12.77;9.45;;;;;;;;;;4934522;29;20028;-64
2023/06/21 01:32:08;;;;;;;13.27;9.90;;;;;;;;;;4932677;29;20036;-63
2023/06/21 01:34:34;;;;;;;11.52;9.38;;;;;;;;;;4934085;29;20067;-63
2023/06/21 01:37:00;;;;;;;13.60;10.25;;;;;;;;;;4933825;29;20035;-63
2023/06/21 01:39:28;;;;;;;16.25;10.60;;;;;;;;;;4933680;29;20055;-63
2023/06/21 01:41:54;;;;;;;10.27;9.27;;;;;;;;;;4934342;29;20023;-63
2023/06/21 01:44:21;;;;;;;10.13;8.93;;;;;;;;;;4933674;29;20385;-64
2023/06/21 01:46:51;;;;;;;11.02;8.85;;;;;;;;;;4934706;29;20024;-64
2023/06/21 01:49:17;;;;;;;15.15;9.43;;;;;;;;;;4933027;29;20020;-72
2023/06/21 01:51:43;;;;;;;11.77;9.77;;;;;;;;;;4934719;29;20090;-73
2023/06/21 01:54:09;;;;;;;10.88;9.68;;;;;;;;;;4929394;29;20381;-73
2023/06/21 01:56:37;;;;;;;13.77;9.43;;;;;;;;;;4934036;29;20554;-73
2023/06/21 01:59:03;;;;;;;13.68;10.35;;;;;;;;;;4916421;29;20110;-73
2023/06/21 02:01:31;;;;;;;12.30;9.25;;;;;;;;;;4934315;29;20107;-73
2023/06/21 02:03:59;;;;;;;15.60;9.75;;;;;;;;;;4932766;29;20040;-75
2023/06/21 02:06:26;;;;;;;13.25;8.75;;;;;;;;;;4934137;29;20098;-72
2023/06/21 02:08:53;;;;;;;11.35;9.80;;;;;;;;;;4933978;29;20031;-74
2023/06/21 02:11:19;;;;;;;10.23;9.18;;;;;;;;;;4932474;29;20032;-73
2023/06/21 02:13:48;;;;;;;14.50;9.55;;;;;;;;;;4934073;29;20028;-73
2023/06/21 02:16:17;;;;;;;11.98;9.43;;;19.90;99.90;;;;;;4932796;29;20148;-73
2023/06/21 02:18:44;;;;;;;12.05;9.57;;;19.80;99.90;;;;;;4934161;29;20034;-72
2023/06/21 02:21:11;;;;;;;11.70;8.98;;;;;;;;;;4932540;29;20388;-73
2023/06/21 02:23:37;;;;;;;10.73;9.10;;;;;;;;;;4934037;29;20543;-72
2023/06/21 02:26:03;;;;;;;12.57;10.27;;;;;;;;;;4933136;29;20023;-74
2023/06/21 02:28:29;;;;;;;11.93;9.55;;;;;;;;;;4934081;29;20453;-73
2023/06/21 02:30:55;;;;;;;10.27;8.93;;;;;;;;;;4932923;29;20035;-75
2023/06/21 02:33:21;;;;;;;9.82;8.60;;;;;;;;;;4933203;29;20118;-73
2023/06/21 02:35:47;;;;;;;9.82;8.80;;;;;;;;;;4933572;29;20028;-72
2023/06/21 02:38:13;;;;;;;12.45;9.10;;;;;;;;;;4933167;29;20040;-73
2023/06/21 02:40:39;;;;;;;12.10;9.63;;;;;;;;;;4927231;29;20505;-72
2023/06/21 02:43:05;;;;;;;10.38;8.95;;;;;;;;;;4927365;29;20028;-73
2023/06/21 02:45:31;;;;;;;10.52;8.68;;;;;;;;;;4928496;29;20051;-74
2023/06/21 02:47:57;;;;;;;10.85;9.18;;;;;;;;;;4912760;29;20065;-74
2023/06/21 02:50:23;;;;;;;17.52;10.25;;;;;;;;;;4927266;29;20032;-73
2023/06/21 02:52:49;;;;;;;11.55;9.55;;;;;;;;;;4928283;29;20104;-73
2023/06/21 02:55:16;;;;;;;12.93;9.38;;;;;;;;;;4909652;29;20692;-73
2023/06/21 02:57:42;;;;;;;15.50;9.60;;;;;;;;;;4928361;29;20020;-72
2023/06/21 03:00:19;;;;;;;15.93;9.27;;;;;;;;;;4925755;29;20086;-73
2023/06/21 03:02:45;;;;;;;11.85;8.90;;;;;;;;;;4932871;29;20158;-73
2023/06/21 03:05:14;;;;;;;9.27;8.30;;;;;;;;;;4924164;29;20035;-72
2023/06/21 03:07:46;;;;;;;10.50;8.87;;;;;;;;;;4929573;29;20469;-73
2023/06/21 03:10:13;;;;;;;11.35;8.80;;;;;;;;;;4926101;29;20260;-74
2023/06/21 03:12:43;;;;;;;10.93;8.77;;;;;;;;;;4927962;29;20497;-74
2023/06/21 03:15:09;;;;;;;;;;;;;;;;;;4926723;29;20039;-73
2023/06/21 03:17:35;;;;;;;12.15;9.63;;;;;;;;;;4928009;29;19907;-72
2023/06/21 03:20:01;;;;;;;10.80;9.38;;;;;;;;;;4927445;29;20027;-74
2023/06/21 03:22:27;;;;;;;11.00;9.00;;;;;;;;;;4927610;29;20034;-73
2023/06/21 03:24:53;;;;;;;11.20;9.05;;;;;;;;;;4930634;29;20119;-73
2023/06/21 03:27:19;;;;;;;8.80;7.93;;;;;;;;;;4930560;29;20226;-70
2023/06/21 03:29:45;;;;;;;11.13;8.45;;;;;;;;;;4908793;29;20036;-71
2023/06/21 03:32:11;;;;;;;14.00;8.55;;;;;;;;;;4928359;29;20024;-71
2023/06/21 03:34:37;;;;;;;9.20;8.30;;;;;;;;;;4931025;29;20036;-70
2023/06/21 03:37:03;;;;;;;11.57;9.18;;;;;;;;;;4934070;29;20366;-71
2023/06/21 03:39:29;;;;;;;10.93;9.25;;;;;;;;;;4931633;29;20040;-70
2023/06/21 03:41:55;;;;;;;10.40;8.63;;;;;;;;;;4929421;29;20158;-73
2023/06/21 03:44:21;;;;;;;9.57;8.20;;;;;;;;;;4929882;29;20039;-70
2023/06/21 03:46:47;;;;;;;11.65;9.48;;;;;;;;;;4930345;29;20020;-70
2023/06/21 03:49:13;;;;;;;12.95;9.35;;;;;;;;;;4929296;29;20067;-70
2023/06/21 03:51:39;;;;;;;14.77;9.85;;;;;;;;;;4930640;29;20524;-71
2023/06/21 03:54:05;;;;;;;12.70;9.45;;;;;;;;;;4930379;29;20032;-70
2023/06/21 03:56:32;;;;;;;13.55;9.77;;;;;;;;;;4927658;29;20102;-69
2023/06/21 03:58:58;;;;;;;14.13;10.10;;;;;;;;;;4926874;29;20473;-64
2023/06/21 04:01:24;;;;;;;13.60;8.70;;;;;;;;;;4936468;29;20024;-64
2023/06/21 04:03:50;;;;;;;16.10;9.90;;;;;;;;;;4936472;29;20119;-64
2023/06/21 04:06:16;;;;;;;12.73;9.80;;;;;;;;;;4935325;29;20115;-64
2023/06/21 04:08:42;;;;;;;12.98;9.35;;;;;;;;;;4936332;29;20464;-63
2023/06/21 04:11:08;;;;;;;13.23;9.85;;;;;;;;;;4934853;29;20057;-63
2023/06/21 04:13:35;;;;;;;13.85;9.93;;;;;;;;;;4936337;29;20058;-63
2023/06/21 04:16:01;;;;;;;11.05;9.82;;;;;;;;;;4922661;29;20534;-63
2023/06/21 04:18:27;;;;;;;16.48;11.52;;;;;;;;;;4931161;29;20020;-64
2023/06/21 04:20:53;;;;;;;11.88;9.35;;;;;;;;;;4928238;29;20083;-64
2023/06/21 04:23:19;;;;;;;11.73;10.52;;;;;;;;;;4928233;29;20457;-65
2023/06/21 04:25:45;;;;;;;12.85;11.45;;;;;;;;;;4928093;29;20023;-63
2023/06/21 04:28:11;;;;;;;18.63;12.45;;;;;;;;;;4931055;29;20098;-64
2023/06/21 04:30:37;;;;;;;14.27;11.27;;;;;;;;;;4926749;29;20461;-64
2023/06/21 04:33:03;;;;;;;12.07;10.80;;;;;;;;;;4927231;29;20361;-64
2023/06/21 04:35:29;;;;;;;12.30;10.80;;;;;;;;;;4929293;29;20099;-64
2023/06/21 04:37:55;;;;;;;16.27;11.32;;;;;;;;;;4929250;29;20477;-65
2023/06/21 04:40:21;;;;;;;17.52;11.63;;;;;;;;;;4926761;29;20055;-64
2023/06/21 04:42:54;;;;;;;13.25;10.35;;;;;;;;;;4930827;29;20015;-64
2023/06/21 04:45:20;;;;;;;12.65;10.68;;;;;;;;;;4929072;29;20442;-64
2023/06/21 04:47:46;;;;;;;13.02;10.23;;;;;;;;;;4930550;29;20054;-64
2023/06/21 04:50:12;;;;;;;11.75;9.55;;;;;;;;;;4925511;29;20604;-64
2023/06/21 04:52:38;;;;;;;13.55;9.70;;;;;;;;;;4926934;29;20103;-64
2023/06/21 04:55:08;;;;;;;10.88;9.18;;;;;;;;;;4926301;29;20418;-64
2023/06/21 04:57:34;;;;;;;11.60;9.30;;;;;;;;;;4929718;29;20024;-63
2023/06/21 05:00:06;;;;;;;13.43;9.65;;;;;;;;;;4927516;29;20063;-64
2023/06/21 05:02:32;;;;;;;10.75;8.75;;;;;;;;;;4935085;29;20036;-64
2023/06/21 05:04:58;;;;;;;11.45;9.02;;;;;;;;;;4934092;29;20036;-64
2023/06/21 05:07:25;;;;;;;12.10;8.82;;;;;;;;;;4935043;29;20106;-64
2023/06/21 05:09:51;;;;;;;10.95;9.18;;;;;;;;;;4934492;29;20388;-68
2023/06/21 05:12:17;;;;;;;10.75;9.20;;;;;;;;;;4933947;29;20034;-63
2023/06/21 05:14:43;;;;;;;11.52;7.90;;;;;;;;;;4926323;29;20036;-63
2023/06/21 05:17:11;;;;;;;11.50;8.38;;;;;;;;;;4933496;29;20031;-65
2023/06/21 05:19:37;;;;;;;8.50;7.13;;;;;;;;;;4934561;29;20027;-64
2023/06/21 05:22:03;;;;;;;11.73;7.45;;;;;;;;;;4934226;29;20024;-67
2023/06/21 05:24:29;;;;;;;12.02;8.23;;;;;;;;;;4931939;29;20115;-67
2023/06/21 05:26:55;;;;;;;11.02;7.95;;;;;;;;;;4934109;29;20167;-67
2023/06/21 05:29:23;;;;;;;8.73;7.50;;;;;;;;;;4934420;29;20032;-72
2023/06/21 05:31:49;;;;;;;9.98;7.55;;;;;;;;;;4933804;29;20024;-68
2023/06/21 05:34:15;;;;;;;11.85;8.45;;;;;;;;;;4933545;29;20213;-68
2023/06/21 05:36:41;;;;;;;10.32;7.57;;;;;;;;;;4934363;29;20363;-71
2023/06/21 05:39:07;;;;;;;12.07;8.20;;;;;;;;;;4932864;29;20048;-73
2023/06/21 05:41:33;;;;;;;12.20;7.85;;;;;;;;;;4934565;29;20030;-72
2023/06/21 05:43:59;;;;;;;11.68;7.90;;;;;;;;;;4932909;29;20032;-73
2023/06/21 05:46:25;;;;;;;10.68;7.75;;;;;;;;;;4932668;29;20562;-71
2023/06/21 05:48:51;;;;;;;10.32;7.68;;;;;;;;;;4934328;29;20024;-71
2023/06/21 05:51:17;;;;;;;12.55;8.07;;;;;;;;;;4933568;29;20392;-71
2023/06/21 05:53:43;;;;;;;13.40;8.80;;;;;;;;;;4934415;29;20103;-69
2023/06/21 05:56:09;;;;;;;11.55;8.65;;;;;;;;;;4933734;29;20023;-70
2023/06/21 05:58:35;;;;;;;11.15;8.23;;;;;;;;;;4935456;29;20035;-72
2023/06/21 06:01:02;;;;;;;12.63;8.30;;;;;;;;;;4933576;29;20076;-71
2023/06/21 06:03:28;;;;;;;12.05;8.57;;;;;;;;;;4934224;29;20440;-70
2023/06/21 06:05:55;;;;;;;15.43;12.10;;;;;;;;;;4933962;29;20051;-73
2023/06/21 06:08:21;;;;;;;14.40;10.80;;;;;;;;;;4934542;29;20528;-69
2023/06/21 06:10:48;;;;;;;16.10;9.65;;;;;;;;;;4933397;29;20454;-69
2023/06/21 06:13:14;;;;;;;12.45;9.50;;;;;;;;;;4934189;29;20031;-69
2023/06/21 06:15:40;;;;;;;12.10;10.02;;;;;;;;;;4933591;29;20020;-72
2023/06/21 06:18:06;;;;;;;14.63;9.55;;;;;;;;;;4922223;29;20059;-73
2023/06/21 06:20:32;;;;;;;12.13;8.63;;;;;;;;;;4931502;29;20481;-73
2023/06/21 06:22:58;;;;;;;15.35;8.60;;;;;;;;;;4932533;29;20028;-72
2023/06/21 06:25:24;;;;;;;15.07;8.15;;;;;;;;;;4932716;29;20032;-72
2023/06/21 06:27:50;;;;;;;9.48;7.63;;;;;;;;;;4925853;29;20024;-72
2023/06/21 06:30:16;;;;;;;11.07;7.45;;;;;;;;;;4931662;29;20738;-73
2023/06/21 06:32:42;;;;;;;11.05;7.25;;;;;;;;;;4932888;29;20107;-75
2023/06/21 06:35:08;;;;;;;9.82;7.00;;;;;;;;;;4932130;29;20446;-73
2023/06/21 06:37:34;;;;;;;14.93;8.00;;;;;;;;;;4933486;29;20082;-73
2023/06/21 06:40:00;;;;;;;12.50;7.88;;;;;;;;;;4932010;29;20138;-72
2023/06/21 06:42:26;;;;;;;13.18;7.45;;;;;;;;;;4933095;29;20477;-72
2023/06/21 06:44:53;;;;;;;12.90;8.40;;;;;;;;;;4932446;29;20039;-73
2023/06/21 06:47:19;;;;;;;11.88;8.65;;;;;;;;;;4915272;29;20054;-72
2023/06/21 06:49:45;;;;;;;9.18;7.20;;;;;;;;;;4921492;29;20019;-72
2023/06/21 06:52:14;;;;;;;8.60;7.30;;;;;;;;;;4932492;29;20028;-72
2023/06/21 06:54:40;;;;;;;9.35;7.60;;;;;;;;;;4933047;29;20114;-72
2023/06/21 06:57:06;;;;;;;12.60;7.70;;;;;;;;;;4934754;29;20405;-74
2023/06/21 06:59:32;;;;;;;11.10;8.05;;;;;;;;;;4924666;29;20381;-74
2023/06/21 07:01:58;;;;;;;12.50;7.60;;;;;;;;;;4936221;29;20024;-73
2023/06/21 07:04:25;;;;;;;9.07;7.15;;;;;;;;;;4936622;29;20059;-72
2023/06/21 07:06:51;;;;;;;11.93;7.53;;;;;;;;;;4936855;29;20480;-71
2023/06/21 07:09:17;;;;;;;9.95;7.55;;;;;;;;;;4935327;29;20073;-71
2023/06/21 07:11:43;;;;;;;10.55;7.22;;;;;;;;;;4934508;29;20430;-74
2023/06/21 07:14:09;;;;;;;9.48;7.28;;;;;;;;;;4934939;29;20027;-72
2023/06/21 07:16:36;;;;;;;9.32;7.50;;;;;;;;;;4936381;29;20077;-71
2023/06/21 07:19:03;;;;;;;11.35;7.38;;;;;;;;;;4935013;29;20031;-71
2023/06/21 07:21:29;;;;;;;9.57;7.05;;;;;;;;;;4936026;29;20058;-71
2023/06/21 07:23:55;;;;;;;11.43;8.25;;;;;;;;;;4935901;29;20066;-75
2023/06/21 07:26:21;;;;;;;9.05;7.63;;;;;;;;;;4936319;29;20056;-72
2023/06/21 07:28:47;;;;;;;10.80;7.70;;;;;;;;;;4936535;29;20031;-72
2023/06/21 07:31:13;;;;;;;13.80;7.65;;;;;;;;;;4935640;29;20092;-74
2023/06/21 07:33:39;;;;;;;12.57;7.43;;;;;;;;;;4935369;29;20044;-73
2023/06/21 07:36:06;;;;;;;13.20;7.18;;;;;;;;;;4936052;29;20050;-71
2023/06/21 07:38:32;;;;;;;9.13;6.97;;;;;;;;;;4935678;29;20399;-72
2023/06/21 07:40:58;;;;;;;14.65;7.45;;;;;;;;;;4935055;29;20031;-72
2023/06/21 07:43:24;;;;;;;9.85;7.80;;;;;;;;;;4932601;29;20039;-71
2023/06/21 07:45:50;;;;;;;9.30;6.55;;;;;;;;;;4935450;29;20405;-71
2023/06/21 07:48:16;;;;;;;9.48;7.57;;;;;;;;;;4926543;29;20126;-72
2023/06/21 07:50:43;;;;;;;9.35;6.32;;;;;;;;;;4917848;29;20110;-72
2023/06/21 07:53:09;;;;;;;11.13;7.47;;;;;;;;;;4917934;29;20032;-72
2023/06/21 07:55:35;;;;;;;8.35;7.05;;;;;;;;;;4936729;29;20106;-71
2023/06/21 07:58:01;;;;;;;13.38;7.35;;;;;;;;;;4935289;29;20035;-72
2023/06/21 08:00:28;;;;;;;22.20;7.25;;;;;;;;;;4937710;29;20130;-65
2023/06/21 08:02:54;;;;;;;8.80;6.25;;;;;;;;;;4936838;29;20055;-66
2023/06/21 08:05:20;;;;;;;9.18;6.20;;;;;;;;;;4934289;29;20024;-65
2023/06/21 08:07:46;;;;;;;11.32;6.75;;;;;;;;;;4934156;29;20030;-64
2023/06/21 08:10:12;;;;;;;11.48;6.70;;;26.00;99.90;;;;;;4933610;29;20756;-65
2023/06/21 08:12:38;;;;;;;7.93;6.07;;;26.10;99.90;;;;;;4934872;29;20086;-65
2023/06/21 08:15:05;;;;;;;10.30;6.70;;;26.20;99.90;;;;;;4933611;29;20040;-64
2023/06/21 08:17:30;;;;;;;11.20;6.90;;;26.10;99.90;;;;;;4934980;29;20421;-65
2023/06/21 08:19:56;;;;;;;11.68;5.55;;;26.10;99.90;;;;;;4933840;29;20059;-65
2023/06/21 08:22:22;;;;;;;8.13;5.47;;;26.00;99.90;;;;;;4934765;29;20106;-66
2023/06/21 08:24:47;;;;;;;8.30;5.60;;;25.80;99.90;;;;;;4934198;29;20370;-66
2023/06/21 08:27:16;;;;;;;11.82;5.45;;;25.60;99.90;;;;;;4934304;29;20157;-66
2023/06/21 08:29:42;;;;;;;6.55;5.32;;;25.50;99.90;;;;;;4934294;29;20082;-65
2023/06/21 08:32:07;;;;;;;10.23;5.75;;;25.40;99.90;;;;;;4933050;29;20031;-65
2023/06/21 08:34:33;;;;;;;11.40;6.40;;;25.20;99.90;;;;;;4928458;29;20035;-65
2023/06/21 08:36:59;;;;;;;9.65;6.57;;;25.00;99.90;;;;;;4934045;29;20039;-65
2023/06/21 08:39:24;;;;;;;9.25;5.95;;;24.90;99.90;;;;;;4933812;29;20079;-65
2023/06/21 08:41:51;;;;;;;10.45;5.93;;;24.80;99.90;;;;;;4932955;29;20102;-65
2023/06/21 08:44:17;;;;;;;11.63;5.68;;;24.70;99.90;;;;;;4929838;29;20159;-64
2023/06/21 08:46:47;;;;;;;7.50;5.57;;;24.60;99.90;;;;;;4934192;29;20039;-65
2023/06/21 08:49:17;;;;;;;8.05;5.00;;;24.50;99.90;;;;;;4920717;29;20059;-65
2023/06/21 08:51:44;;;;;;;;;;;24.40;99.90;;;;;;4935066;29;20109;-65
2023/06/21 08:54:11;;;;;;;9.23;6.00;;;24.40;99.90;;;;;;4933417;29;20387;-65
2023/06/21 08:56:46;;;;;;;8.15;5.80;;;24.40;99.90;;;;;;4934332;29;20182;-66
2023/06/21 08:59:25;;;;;;;9.15;5.45;;;24.30;99.90;;;;;;4933151;29;20124;-64
2023/06/21 09:02:09;;;;;;;10.80;5.10;;;24.20;99.90;;;;;;4934308;29;20490;-65
2023/06/21 09:04:42;;;;;;;8.85;5.75;;;23.90;99.90;;;;;;4933629;29;20070;-64
2023/06/21 09:07:08;;;;;;;13.60;6.25;;;23.60;99.90;;;;;;4933657;29;20117;-65
2023/06/21 09:09:35;;;;;;;10.32;5.53;;;23.20;99.90;;;;;;4934104;29;20024;-64
2023/06/21 09:12:00;;;;;;;9.68;6.07;;;22.90;99.90;;;;;;4933269;29;20027;-65
2023/06/21 09:14:31;;;;;;;11.93;6.10;;;22.50;99.90;;;;;;4933406;29;20106;-65
2023/06/21 09:17:00;;;;;;;13.27;6.88;;;22.20;99.90;;;;;;4933223;29;20107;-66
2023/06/21 09:19:26;;;;;;;10.57;6.35;;;22.00;99.90;;;;;;4933427;29;20027;-65
2023/06/21 09:21:55;;;;;;;14.85;6.50;;;21.60;99.90;;;;;;4933514;29;20091;-67
2023/06/21 09:24:20;;;;;;;13.73;7.53;;;21.40;99.90;;;;;;4933483;29;20632;-65
2023/06/21 09:26:46;;;;;;;17.45;8.82;;;21.20;99.90;;;;;;4934279;29;20056;-65
2023/06/21 09:29:11;;;;;;;13.25;8.02;;;21.00;99.90;;;;;;4932804;29;20794;-64
2023/06/21 09:31:37;;;;;;;13.13;7.78;;;20.80;99.90;;;;;;4932728;29;20024;-65
2023/06/21 09:34:02;;;;;;;11.68;8.88;;;20.60;99.90;;;;;;4931055;29;20114;-65
2023/06/21 09:36:28;;;;;;;14.85;8.95;;;20.50;99.90;;;;;;4932553;29;20023;-65
2023/06/21 09:39:07;;;;;;;14.43;9.82;;;20.40;99.90;;;;;;4932525;29;20186;-66
2023/06/21 09:41:33;;;;;;;19.27;10.20;;;20.20;99.90;;;;;;4916803;29;20106;-66
2023/06/21 09:43:59;;;;;;;14.73;9.73;;;20.10;99.90;;;;;;4932017;29;20500;-65
2023/06/21 09:46:24;;;;;;;13.20;10.05;;;20.10;99.90;;;;;;4931722;29;20171;-65
2023/06/21 09:48:50;;;;;;;14.65;9.85;;;20.00;99.90;;;;;;4930742;29;20111;-65
2023/06/21 09:51:18;;;;;;;12.65;9.52;;;19.90;99.90;;;;;;4932051;29;20027;-65
2023/06/21 09:53:47;;;;;;;14.10;10.73;;;19.80;99.90;;;;;;4933445;29;20032;-65
2023/06/21 09:56:20;;;;;;;14.88;11.25;;;19.80;99.90;;;;;;4924949;29;20023;-65
2023/06/21 09:58:50;;;;;;;17.38;11.30;;;;;;;;;;4933645;29;20024;-65
2023/06/21 10:01:16;;;;;;;13.77;10.60;;;;;;;;;;4931961;29;20031;-68
2023/06/21 10:03:46;;;;;;;15.43;10.90;;;;;;;;;;4933018;29;20054;-67
2023/06/21 10:06:16;;;;;;;22.95;12.20;;;;;;;;;;4931998;29;20019;-68
2023/06/21 10:08:42;;;;;;;13.30;11.05;;;;;;;;;;4932999;29;20039;-68
2023/06/21 10:11:08;;;;;;;16.08;12.55;;;;;;;;;;4931875;29;20023;-68
2023/06/21 10:13:37;;;;;;;18.58;12.48;;;;;;;;;;4930902;29;20402;-68
2023/06/21 10:16:04;;;;;;;15.23;12.13;;;;;;;;;;4922537;29;20032;-68
2023/06/21 10:18:30;;;;;;;18.80;13.07;;;;;;;;;;4932856;29;20036;-67
2023/06/21 10:20:57;;;;;;;21.70;14.88;;;;;;;;;;4931793;29;20024;-68
2023/06/21 10:23:28;;;;;;;25.42;14.57;;;;;;;;;;4932682;29;20500;-67
2023/06/21 10:25:53;;;;;;;;;;;;;;;;;;4932441;29;20035;-68
2023/06/21 10:28:21;;;;;;;20.20;14.75;;;;;;;;;;4932829;29;19910;-68
2023/06/21 10:30:50;;;;;;;21.35;15.50;;;;;;;;;;4928865;29;20167;-67
2023/06/21 10:33:17;;;;;;;16.98;13.95;;;;;;;;;;4936056;29;20035;-67
2023/06/21 10:35:45;;;;;;;18.08;14.82;;;;;;;;;;4930659;29;20055;-68
2023/06/21 10:38:19;;;;;;;22.90;14.35;;;;;;;;;;4929985;29;20080;-68
2023/06/21 10:40:45;;;;;;;20.85;15.07;;;;;;;;;;4930457;29;20028;-68
2023/06/21 10:43:12;;;;;;;17.75;14.25;;;;;;;;;;4936216;29;20032;-66
2023/06/21 10:45:39;;;;;;;17.88;15.05;;;;;;;;;;4936106;29;20078;-68
2023/06/21 10:48:05;;;;;;;21.33;16.30;;;;;;;;;;4935805;29;20079;-68
2023/06/21 10:50:31;;;;;;;21.13;14.82;;;;;;;;;;4936060;29;20023;-68
2023/06/21 10:52:58;;;;;;;17.30;13.55;;;;;;;;;;4930773;29;20377;-69
2023/06/21 10:55:24;;;;;;;17.38;12.52;;;;;;;;;;4938316;29;20589;-67
2023/06/21 10:57:55;;;;;;;15.57;11.60;;;;;;;;;;4936467;29;20027;-68
2023/06/21 11:00:25;;;;;;;18.00;13.57;;;;;;;;;;4929018;29;20024;-69
2023/06/21 11:02:52;;;;;;;17.77;11.60;;;;;;;;;;4936367;29;20043;-69
2023/06/21 11:05:28;;;;;;;14.80;12.18;;;;;;;;;;4932585;29;20573;-70
2023/06/21 11:07:57;;;;;;;14.55;11.32;;;;;;;;;;4935527;29;20115;-70
2023/06/21 11:10:37;;;;;;;15.80;10.50;;;;;;;;;;4935610;29;20082;-68
2023/06/21 11:13:03;;;;;;;15.00;9.48;;;;;;;;;;4935371;29;20425;-68
2023/06/21 11:15:29;;;;;;;12.00;9.27;;;;;;;;;;4934716;29;20024;-68
2023/06/21 11:17:56;;;;;;;12.77;8.27;;;;;;;;;;4927737;29;20039;-70
2023/06/21 11:20:23;;;;;;;9.82;8.15;;;;;;;;;;4935367;29;20036;-70
2023/06/21 11:22:58;;;;;;;10.40;8.15;;;;;;;;;;4934904;29;20020;-70
2023/06/21 11:25:25;;;;;;;10.43;7.70;;;;;;;;;;4935283;29;20036;-69
2023/06/21 11:28:29;;;;;;;11.65;7.63;;;;;;;;;;4935764;29;20024;-70
2023/06/21 11:31:02;;;;;;;13.43;8.43;;;;;;;;;;4838894;29;20030;-70
2023/06/21 11:33:29;;;;;;;14.50;9.10;;;;;;;;;;4838563;29;20029;-70
2023/06/21 11:36:02;;;;;;;14.15;8.05;;;;;;;;;;4889000;29;20087;-70
2023/06/21 11:38:29;;;;;;;10.20;7.40;;;;;;;;;;4935319;29;20044;-69
2023/06/21 11:40:55;;;;;;;11.77;7.65;;;;;;;;;;4934774;29;20055;-69
2023/06/21 11:43:21;;;;;;;11.50;7.30;;;25.90;99.90;;;;;;4935103;29;20631;-69
2023/06/21 11:46:03;;;;;;;11.20;8.35;;;25.90;99.90;;;;;;4935025;29;20035;-70
2023/06/21 11:48:29;;;;;;;12.95;7.95;;;;;;;;;;4927215;29;20055;-69
2023/06/21 11:50:56;;;;;;;11.38;7.82;;;;;;;;;;4934554;29;20039;-70
2023/06/21 11:53:28;;;;;;;8.77;7.32;;;26.60;99.90;;;;;;4935096;29;20023;-69
2023/06/21 11:56:02;;;;;;;15.93;7.30;;;27.00;99.90;;;;;;4924953;29;20095;-70
2023/06/21 11:58:28;;;;;;;7.68;6.72;;;27.40;99.90;;;;;;4935194;29;20043;-70
2023/06/21 12:00:55;;;;;;;12.73;8.55;;;27.70;99.90;;;;;;4935042;29;20516;-69
2023/06/21 12:03:22;;;;;;;11.73;8.00;;;28.20;99.90;;;;;;4935260;29;20057;-70
2023/06/21 12:05:50;;;;;;;11.88;8.18;;;28.20;99.90;;;;;;4934459;29;20115;-70
2023/06/21 12:08:22;;;;;;;12.98;8.98;;;28.10;99.90;;;;;;4928849;29;20516;-69
2023/06/21 12:10:48;;;;;;;8.75;7.85;;;28.20;99.90;;;;;;4934826;29;20032;-70
2023/06/21 12:13:16;;;;;;;9.00;7.70;;;28.10;99.90;;;;;;4934390;29;20051;-70
2023/06/21 12:15:53;;;;;;;10.40;8.68;;;27.90;99.90;;;;;;4934582;29;20035;-70
2023/06/21 12:18:19;;;;;;;13.73;8.40;;;27.70;99.90;;;;;;4934319;29;20465;-70
2023/06/21 12:20:45;;;;;;;11.85;8.32;;;27.50;99.90;;;;;;4914444;29;20035;-70
2023/06/21 12:23:11;;;;;;;12.20;8.68;;;27.40;99.90;;;;;;4921864;29;20039;-70
2023/06/21 12:25:48;;;;;;;12.45;7.90;;;27.80;99.90;;;;;;4934454;29;20031;-70
2023/06/21 12:28:14;;;;;;;8.63;7.07;;;27.90;99.90;;;;;;4933987;29;20039;-70
2023/06/21 12:30:53;;;;;;;10.48;7.63;;;27.70;99.90;;;;;;4934327;29;20058;-70
2023/06/21 12:33:26;;;;;;;11.57;8.50;;;27.60;99.90;;;;;;4933757;29;20053;-70
2023/06/21 12:35:53;;;;;;;11.93;7.85;;;27.50;99.90;;;;;;4934310;29;20043;-67
2023/06/21 12:38:19;;;;;;;11.10;7.05;;;27.40;99.90;;;;;;4933751;29;20051;-67
2023/06/21 12:40:58;;;;;;;10.23;8.05;;;27.20;99.90;;;;;;4934171;29;20082;-67
2023/06/21 12:43:44;;;;;;;9.35;7.75;;;27.10;99.90;;;;;;4934214;29;20032;-69
2023/06/21 12:46:11;;;;;;;9.93;7.78;;;27.00;99.90;;;;;;4933464;29;20042;-69
2023/06/21 12:48:46;;;;;;;23.02;9.82;;;26.90;99.90;;;;;;4934386;29;20102;-68
2023/06/21 12:51:23;;;;;;;14.15;8.80;;;27.00;99.90;;;;;;4933399;29;20047;-68
2023/06/21 12:53:57;;;;;;;11.98;10.43;;;27.00;99.90;;;;;;4933703;29;20019;-68
2023/06/21 12:56:33;;;;;;;11.05;9.55;;;27.00;99.90;;;;;;4934740;29;20031;-67
2023/06/21 12:58:59;;;;;;;15.85;9.73;;;27.00;99.90;;;;;;4930817;29;20548;-68
2023/06/21 13:01:26;;;;;;;16.77;9.85;;;27.20;99.90;;;;;;4933969;29;20400;-67
2023/06/21 13:03:59;;;;;;;11.52;8.82;;;27.60;99.90;;;;;;4933767;29;20046;-68
2023/06/21 13:06:26;;;;;;;10.50;7.55;;;28.00;99.90;;;;;;4934005;29;20087;-68
2023/06/21 13:08:52;;;;;;;10.65;8.32;;;28.30;99.90;;;;;;4934159;29;20051;-67
2023/06/21 13:11:18;;;;;;;12.48;8.20;;;28.80;99.90;;;;;;4933158;29;20042;-67
2023/06/21 13:13:43;;;;;;;14.75;7.88;;;29.10;99.90;;;;;;4928453;29;20031;-68
2023/06/21 13:16:11;;;;;;;7.70;6.93;;;29.30;99.90;;;;;;4927474;29;20464;-67
2023/06/21 13:18:37;;;;;;;12.82;7.65;;;29.40;99.90;;;;;;4931915;29;20473;-68
2023/06/21 13:21:02;;;;;;;10.75;7.75;;;29.60;99.90;;;;;;4932792;29;20083;-68
2023/06/21 13:23:28;;;;;;;13.57;7.38;;;29.80;99.90;;;;;;4933523;29;20387;-67
2023/06/21 13:25:55;;;;;;;11.13;7.35;;;29.90;99.90;;;;;;4932891;29;20111;-68
2023/06/21 13:28:23;;;;;;;7.32;6.13;;;30.90;99.90;;;;;;4933761;29;20035;-68
2023/06/21 13:30:50;;;;;;;12.82;8.52;;;30.80;99.90;;;;;;4932891;29;20388;-68
2023/06/21 13:33:15;;;;;;;9.00;7.50;;;31.10;99.90;;;;;;4932061;29;20024;-68
2023/06/21 13:35:42;;;;;;;9.82;6.68;;;31.30;98.20;;;;;;4932963;29;20034;-68
2023/06/21 13:38:08;;;;;;;13.52;7.32;;;31.30;98.00;;;;;;4932535;29;20063;-68
2023/06/21 13:40:34;;;;;;;8.65;6.97;;;31.30;98.00;;;;;;4933218;29;20032;-68
2023/06/21 13:42:59;;;;;;;11.95;8.40;;;31.30;98.30;;;;;;4932808;29;20470;-68
2023/06/21 13:45:25;;;;;;;13.23;8.00;;;31.50;97.50;;;;;;4932651;29;20058;-68
2023/06/21 13:47:50;;;;;;;10.98;6.50;;;31.60;97.20;;;;;;4933098;29;20035;-65
2023/06/21 13:50:16;;;;;;;11.40;7.85;;;31.50;97.70;;;;;;4924245;29;20880;-69
2023/06/21 13:52:41;;;;;;;9.57;7.32;;;31.50;96.80;;;;;;4933298;29;20063;-67